PWSweather.com
Personal Weather Stations
Station Observations
COONRAPIDS
Minneapolis, MN 55433

Minneapolis, MN 55433

Lat: 45.187721, Lon: -93.36828

Elevation: 898

Station Type: Davis Vantage Pro 2

High Low Average
Temperature 63.2°F17.3°C 49.8°F9.9°C 54.8°F12.7°C
Dew Point 58.2°F14.6°C 44.7°F7.1°C 52.5°F11.4°C
Winds 7.2 mph 11.6 kmh Calm Calm 1.0 mph ENE1.6 kmh ENE
Wind Gusts 12.0 mph19.3 kmh -- 3.0 mph4.8 kmh
Humidity 95% 81% 92%
Pressure 30.00 in1015.9 mb 29.79 in1008.8 mb -
Precipitation 1.28 in32.5 mm - -
Hour Temp Dew Point Humidity Winds Wind Gusts Pressure Precip Precip Rate Daily Precip Total
12:00 AM 55.6°F13.1°C 54.2°F12.3°C 95% 1.3 mph NE2.1 kmh NE 3.0 mph4.8 kmh 29.93 in1013.5 mb 0.00 in0.0 mm 0.00 in/hr0.0 mm/hr 0.00 in0.0 mm
12:10 AM 55.7°F13.2°C 54.3°F12.4°C 95% 0.2 mph NE0.3 kmh NE 1.0 mph1.6 kmh 29.93 in1013.5 mb 0.00 in0.0 mm 0.00 in/hr0.0 mm/hr 0.00 in0.0 mm
12:20 AM 55.8°F13.2°C 54.4°F12.4°C 95% 0.2 mph NNE0.3 kmh NNE 5.0 mph8.0 kmh 29.94 in1013.9 mb 0.01 in0.3 mm 0.06 in/hr1.5 mm/hr 0.01 in0.3 mm
12:30 AM 55.9°F13.3°C 54.5°F12.5°C 95% 0.2 mph N0.3 kmh N -- 29.95 in1014.2 mb 0.00 in0.0 mm 0.00 in/hr0.0 mm/hr 0.01 in0.3 mm
12:40 AM 55.4°F13.0°C 54.0°F12.2°C 95% 5.5 mph NE8.9 kmh NE 10.0 mph16.1 kmh 29.93 in1013.5 mb 0.00 in0.0 mm 0.00 in/hr0.0 mm/hr 0.01 in0.3 mm
12:50 AM 53.7°F12.1°C 52.3°F11.3°C 95% 4.7 mph NE7.6 kmh NE 6.0 mph9.7 kmh 29.92 in1013.2 mb 0.01 in0.3 mm 0.06 in/hr1.5 mm/hr 0.02 in0.5 mm
01:00 AM 52.9°F11.6°C 51.5°F10.8°C 95% 4.5 mph NE7.2 kmh NE 6.0 mph9.7 kmh 29.92 in1013.2 mb 0.00 in0.0 mm 0.00 in/hr0.0 mm/hr 0.02 in0.5 mm
01:10 AM 52.4°F11.3°C 51.0°F10.6°C 95% 7.2 mph NE11.6 kmh NE 11.0 mph17.7 kmh 29.91 in1012.9 mb 0.00 in0.0 mm 0.00 in/hr0.0 mm/hr 0.02 in0.5 mm
01:20 AM 52.0°F11.1°C 50.6°F10.3°C 95% 5.1 mph NE8.2 kmh NE 12.0 mph19.3 kmh 29.90 in1012.5 mb 0.00 in0.0 mm 0.00 in/hr0.0 mm/hr 0.02 in0.5 mm
01:30 AM 51.5°F10.8°C 50.1°F10.1°C 95% 1.2 mph NE1.9 kmh NE 9.0 mph14.5 kmh 29.92 in1013.2 mb 0.00 in0.0 mm 0.00 in/hr0.0 mm/hr 0.02 in0.5 mm
01:40 AM 51.0°F10.6°C 49.6°F9.8°C 95% 4.3 mph NE6.9 kmh NE 10.0 mph16.1 kmh 29.92 in1013.2 mb 0.01 in0.3 mm 0.06 in/hr1.5 mm/hr 0.03 in0.8 mm
01:50 AM 50.5°F10.3°C 49.1°F9.5°C 95% 2.5 mph NE4.0 kmh NE 5.0 mph8.0 kmh 29.92 in1013.2 mb 0.00 in0.0 mm 0.00 in/hr0.0 mm/hr 0.03 in0.8 mm
02:00 AM 50.2°F10.1°C 48.8°F9.3°C 95% 1.4 mph NW2.3 kmh NW 5.0 mph8.0 kmh 29.97 in1014.9 mb 0.01 in0.3 mm 0.01 in/hr0.3 mm/hr 0.04 in1.0 mm
02:10 AM 50.2°F10.1°C 48.9°F9.4°C 95% 2.9 mph NW4.7 kmh NW 8.0 mph12.9 kmh 30.00 in1015.9 mb 0.08 in2.0 mm 0.48 in/hr12.2 mm/hr 0.12 in3.0 mm
02:30 AM 49.8°F9.9°C 48.4°F9.1°C 95% 2.6 mph ENE4.2 kmh ENE 4.0 mph6.4 kmh 29.97 in1014.9 mb 0.41 in10.4 mm 1.23 in/hr31.2 mm/hr 0.46 in11.7 mm
02:40 AM 50.2°F10.1°C 48.8°F9.3°C 95% 2.2 mph NE3.5 kmh NE 5.0 mph8.0 kmh 29.95 in1014.2 mb 0.16 in4.1 mm 0.96 in/hr24.4 mm/hr 0.62 in15.7 mm
02:50 AM 50.3°F10.2°C 48.9°F9.4°C 95% 2.1 mph NE3.4 kmh NE 2.0 mph3.2 kmh 29.94 in1013.9 mb 0.02 in0.5 mm 0.12 in/hr3.0 mm/hr 0.64 in16.3 mm
03:00 AM 50.3°F10.2°C 48.9°F9.4°C 95% 3.8 mph NE6.1 kmh NE 4.0 mph6.4 kmh 29.92 in1013.2 mb 0.04 in1.0 mm 0.05 in/hr1.3 mm/hr 0.68 in17.3 mm
03:10 AM 50.3°F10.2°C 48.9°F9.4°C 95% 2.4 mph NE3.9 kmh NE 4.0 mph6.4 kmh 29.92 in1013.2 mb 0.05 in1.3 mm 0.30 in/hr7.6 mm/hr 0.72 in18.3 mm
03:20 AM 50.3°F10.2°C 48.9°F9.4°C 95% 2.9 mph ENE4.7 kmh ENE 5.0 mph8.0 kmh 29.89 in1012.2 mb 0.04 in1.0 mm 0.24 in/hr6.1 mm/hr 0.76 in19.3 mm
03:30 AM 50.3°F10.2°C 48.9°F9.4°C 95% 1.9 mph NE3.1 kmh NE 5.0 mph8.0 kmh 29.89 in1012.2 mb 0.03 in0.8 mm 0.18 in/hr4.6 mm/hr 0.78 in19.8 mm
03:40 AM 50.3°F10.2°C 48.9°F9.4°C 95% 0.6 mph NE1.0 kmh NE -- 29.90 in1012.5 mb 0.02 in0.5 mm 0.12 in/hr3.0 mm/hr 0.80 in20.3 mm
03:50 AM 50.3°F10.2°C 48.9°F9.4°C 95% 0.7 mph NE1.1 kmh NE 4.0 mph6.4 kmh 29.90 in1012.5 mb 0.02 in0.5 mm 0.12 in/hr3.0 mm/hr 0.82 in20.8 mm
04:00 AM 50.3°F10.2°C 48.9°F9.4°C 95% Calm Calm -- 29.92 in1013.2 mb 0.03 in0.8 mm 0.04 in/hr1.0 mm/hr 0.85 in21.6 mm
04:10 AM 50.3°F10.2°C 48.9°F9.4°C 95% Calm Calm 1.0 mph1.6 kmh 29.92 in1013.2 mb 0.04 in1.0 mm 0.24 in/hr6.1 mm/hr 0.89 in22.6 mm
04:20 AM 50.3°F10.2°C 48.9°F9.4°C 95% 0.1 mph NE0.2 kmh NE -- 29.92 in1013.2 mb 0.06 in1.5 mm 0.36 in/hr9.1 mm/hr 0.94 in23.9 mm
04:30 AM 50.3°F10.2°C 48.9°F9.4°C 95% Calm Calm -- 29.95 in1014.2 mb 0.05 in1.3 mm 0.30 in/hr7.6 mm/hr 0.99 in25.1 mm
04:40 AM 50.3°F10.2°C 48.9°F9.4°C 95% Calm Calm -- 29.96 in1014.6 mb 0.07 in1.8 mm 0.42 in/hr10.7 mm/hr 1.05 in26.7 mm
04:50 AM 50.3°F10.2°C 48.9°F9.4°C 95% Calm Calm -- 29.94 in1013.9 mb 0.04 in1.0 mm 0.24 in/hr6.1 mm/hr 1.09 in27.7 mm
05:00 AM 50.3°F10.2°C 48.9°F9.4°C 95% Calm Calm -- 29.95 in1014.2 mb 0.04 in1.0 mm 0.05 in/hr1.3 mm/hr 1.13 in28.7 mm
05:10 AM 50.3°F10.2°C 48.9°F9.4°C 95% 0.2 mph E0.3 kmh E 3.0 mph4.8 kmh 29.95 in1014.2 mb 0.03 in0.8 mm 0.18 in/hr4.6 mm/hr 1.16 in29.5 mm
05:20 AM 50.3°F10.2°C 48.9°F9.4°C 95% 0.2 mph E0.3 kmh E 1.0 mph1.6 kmh 29.95 in1014.2 mb 0.02 in0.5 mm 0.12 in/hr3.0 mm/hr 1.18 in30.0 mm
05:30 AM 50.3°F10.2°C 48.9°F9.4°C 95% Calm Calm -- 29.95 in1014.2 mb 0.02 in0.5 mm 0.12 in/hr3.0 mm/hr 1.20 in30.5 mm
05:40 AM 50.3°F10.2°C 48.9°F9.4°C 95% Calm Calm -- 29.95 in1014.2 mb 0.02 in0.5 mm 0.12 in/hr3.0 mm/hr 1.22 in31.0 mm
05:50 AM 50.3°F10.2°C 48.9°F9.4°C 95% 0.4 mph E0.6 kmh E 1.0 mph1.6 kmh 29.93 in1013.5 mb 0.02 in0.5 mm 0.12 in/hr3.0 mm/hr 1.24 in31.5 mm
06:00 AM 50.3°F10.2°C 48.9°F9.4°C 95% Calm Calm -- 29.91 in1012.9 mb 0.02 in0.5 mm 0.02 in/hr0.5 mm/hr 1.26 in32.0 mm
06:10 AM 50.3°F10.2°C 48.9°F9.4°C 95% 1.7 mph E2.7 kmh E 2.0 mph3.2 kmh 29.86 in1011.2 mb 0.01 in0.3 mm 0.06 in/hr1.5 mm/hr 1.27 in32.3 mm
06:20 AM 50.3°F10.2°C 48.9°F9.4°C 95% 3.5 mph ESE5.6 kmh ESE 6.0 mph9.7 kmh 29.82 in1009.8 mb 0.01 in0.3 mm 0.06 in/hr1.5 mm/hr 1.28 in32.5 mm
06:30 AM 50.3°F10.2°C 48.9°F9.4°C 95% 3.4 mph ESE5.5 kmh ESE 5.0 mph8.0 kmh 29.79 in1008.8 mb 0.00 in0.0 mm 0.00 in/hr0.0 mm/hr 1.28 in32.5 mm
06:40 AM 50.3°F10.2°C 48.9°F9.4°C 95% 2.6 mph E4.2 kmh E 4.0 mph6.4 kmh 29.79 in1008.8 mb 0.00 in0.0 mm 0.00 in/hr0.0 mm/hr 1.28 in32.5 mm
06:50 AM 50.3°F10.2°C 48.9°F9.4°C 95% 3.5 mph E5.6 kmh E 5.0 mph8.0 kmh 29.80 in1009.1 mb 0.00 in0.0 mm 0.00 in/hr0.0 mm/hr 1.28 in32.5 mm
07:00 AM 50.3°F10.2°C 48.9°F9.4°C 95% 0.1 mph E0.2 kmh E 1.0 mph1.6 kmh 29.80 in1009.1 mb 0.00 in0.0 mm 0.00 in/hr0.0 mm/hr 1.28 in32.5 mm
07:10 AM 50.3°F10.2°C 48.9°F9.4°C 95% 1.4 mph E2.3 kmh E 3.0 mph4.8 kmh 29.82 in1009.8 mb 0.00 in0.0 mm 0.00 in/hr0.0 mm/hr 1.28 in32.5 mm
07:20 AM 50.3°F10.2°C 48.9°F9.4°C 95% Calm Calm 1.0 mph1.6 kmh 29.83 in1010.2 mb 0.00 in0.0 mm 0.00 in/hr0.0 mm/hr 1.28 in32.5 mm
07:30 AM 50.3°F10.2°C 48.9°F9.4°C 95% Calm Calm -- 29.88 in1011.9 mb 0.00 in0.0 mm 0.00 in/hr0.0 mm/hr 1.28 in32.5 mm
07:40 AM 50.3°F10.2°C 48.9°F9.4°C 95% Calm Calm 1.0 mph1.6 kmh 29.90 in1012.5 mb 0.00 in0.0 mm 0.00 in/hr0.0 mm/hr 1.28 in32.5 mm
07:50 AM 50.3°F10.2°C 48.9°F9.4°C 95% 1.5 mph NE2.4 kmh NE 4.0 mph6.4 kmh 29.90 in1012.5 mb 0.00 in0.0 mm 0.00 in/hr0.0 mm/hr 1.28 in32.5 mm
08:00 AM 50.3°F10.2°C 48.9°F9.4°C 95% 0.1 mph NE0.2 kmh NE 1.0 mph1.6 kmh 29.90 in1012.5 mb 0.00 in0.0 mm 0.00 in/hr0.0 mm/hr 1.28 in32.5 mm
08:10 AM 50.3°F10.2°C 48.9°F9.4°C 95% Calm Calm 2.0 mph3.2 kmh 29.91 in1012.9 mb 0.00 in0.0 mm 0.00 in/hr0.0 mm/hr 1.28 in32.5 mm
08:20 AM 50.3°F10.2°C 48.9°F9.4°C 95% Calm Calm 1.0 mph1.6 kmh 29.92 in1013.2 mb 0.00 in0.0 mm 0.00 in/hr0.0 mm/hr 1.28 in32.5 mm
08:30 AM 50.3°F10.2°C 48.9°F9.4°C 95% Calm Calm -- 29.93 in1013.5 mb 0.00 in0.0 mm 0.00 in/hr0.0 mm/hr 1.28 in32.5 mm
08:40 AM 50.3°F10.2°C 48.9°F9.4°C 95% Calm Calm -- 29.93 in1013.5 mb 0.00 in0.0 mm 0.00 in/hr0.0 mm/hr 1.28 in32.5 mm
08:50 AM 50.3°F10.2°C 48.9°F9.4°C 95% Calm Calm -- 29.94 in1013.9 mb 0.00 in0.0 mm 0.00 in/hr0.0 mm/hr 1.28 in32.5 mm
09:00 AM 50.3°F10.2°C 48.9°F9.4°C 95% Calm Calm -- 29.94 in1013.9 mb 0.00 in0.0 mm 0.00 in/hr0.0 mm/hr 1.28 in32.5 mm
09:10 AM 50.3°F10.2°C 48.9°F9.4°C 95% Calm Calm -- 29.94 in1013.9 mb 0.00 in0.0 mm 0.00 in/hr0.0 mm/hr 1.28 in32.5 mm
09:20 AM 50.3°F10.2°C 48.9°F9.4°C 95% 0.1 mph NW0.2 kmh NW 1.0 mph1.6 kmh 29.94 in1013.9 mb 0.00 in0.0 mm 0.00 in/hr0.0 mm/hr 1.28 in32.5 mm
09:30 AM 50.3°F10.2°C 48.9°F9.4°C 95% 1.5 mph NE2.4 kmh NE 3.0 mph4.8 kmh 29.93 in1013.5 mb 0.00 in0.0 mm 0.00 in/hr0.0 mm/hr 1.28 in32.5 mm
09:40 AM 50.3°F10.2°C 48.9°F9.4°C 95% 0.3 mph NE0.5 kmh NE 2.0 mph3.2 kmh 29.92 in1013.2 mb 0.00 in0.0 mm 0.00 in/hr0.0 mm/hr 1.28 in32.5 mm
09:50 AM 50.3°F10.2°C 48.9°F9.4°C 95% 0.6 mph NE1.0 kmh NE 2.0 mph3.2 kmh 29.92 in1013.2 mb 0.00 in0.0 mm 0.00 in/hr0.0 mm/hr 1.28 in32.5 mm
10:00 AM 50.3°F10.2°C 48.9°F9.4°C 95% Calm Calm 1.0 mph1.6 kmh 29.91 in1012.9 mb 0.00 in0.0 mm 0.00 in/hr0.0 mm/hr 1.28 in32.5 mm
10:10 AM 50.3°F10.2°C 48.9°F9.4°C 95% Calm Calm -- 29.92 in1013.2 mb 0.00 in0.0 mm 0.00 in/hr0.0 mm/hr 1.28 in32.5 mm
10:20 AM 50.3°F10.2°C 48.9°F9.4°C 95% 0.3 mph NE0.5 kmh NE 4.0 mph6.4 kmh 29.93 in1013.5 mb 0.00 in0.0 mm 0.00 in/hr0.0 mm/hr 1.28 in32.5 mm
10:30 AM 50.3°F10.2°C 45.6°F7.6°C 84% Calm Calm -- 29.93 in1013.5 mb 0.00 in0.0 mm 0.00 in/hr0.0 mm/hr 1.28 in32.5 mm
10:40 AM 50.3°F10.2°C 44.7°F7.1°C 81% Calm Calm -- 29.92 in1013.2 mb 0.00 in0.0 mm 0.00 in/hr0.0 mm/hr 1.28 in32.5 mm
10:50 AM 58.2°F14.6°C 56.8°F13.8°C 95% 1.0 mph NE1.6 kmh NE 2.0 mph3.2 kmh 29.93 in1013.5 mb 0.00 in0.0 mm 0.00 in/hr0.0 mm/hr 1.28 in32.5 mm
11:00 AM 58.2°F14.6°C 56.8°F13.8°C 95% Calm Calm -- 29.93 in1013.5 mb 0.00 in0.0 mm 0.00 in/hr0.0 mm/hr 1.28 in32.5 mm
11:10 AM 58.1°F14.5°C 56.4°F13.6°C 94% 0.1 mph NE0.2 kmh NE -- 29.92 in1013.2 mb 0.00 in0.0 mm 0.00 in/hr0.0 mm/hr 1.28 in32.5 mm
11:20 AM 58.4°F14.7°C 56.7°F13.7°C 94% 0.5 mph NE0.8 kmh NE 1.0 mph1.6 kmh 29.92 in1013.2 mb 0.00 in0.0 mm 0.00 in/hr0.0 mm/hr 1.28 in32.5 mm
11:30 AM 58.6°F14.8°C 56.9°F13.8°C 94% Calm Calm 3.0 mph4.8 kmh 29.92 in1013.2 mb 0.00 in0.0 mm 0.00 in/hr0.0 mm/hr 1.28 in32.5 mm
11:40 AM 58.5°F14.7°C 56.8°F13.8°C 94% Calm Calm -- 29.92 in1013.2 mb 0.00 in0.0 mm 0.00 in/hr0.0 mm/hr 1.28 in32.5 mm
11:50 AM 58.0°F14.4°C 56.3°F13.5°C 94% 1.5 mph NNE2.4 kmh NNE 4.0 mph6.4 kmh 29.92 in1013.2 mb 0.00 in0.0 mm 0.00 in/hr0.0 mm/hr 1.28 in32.5 mm
12:00 PM 57.6°F14.2°C 55.9°F13.3°C 94% 2.2 mph NE3.5 kmh NE 4.0 mph6.4 kmh 29.92 in1013.2 mb 0.00 in0.0 mm 0.00 in/hr0.0 mm/hr 1.28 in32.5 mm
12:10 PM 57.2°F14.0°C 55.5°F13.1°C 94% 0.8 mph NE1.3 kmh NE 2.0 mph3.2 kmh 29.92 in1013.2 mb 0.00 in0.0 mm 0.00 in/hr0.0 mm/hr 1.28 in32.5 mm
12:20 PM 57.0°F13.9°C 55.3°F12.9°C 94% 0.2 mph NE0.3 kmh NE 1.0 mph1.6 kmh 29.93 in1013.5 mb 0.00 in0.0 mm 0.00 in/hr0.0 mm/hr 1.28 in32.5 mm
12:30 PM 56.9°F13.8°C 55.2°F12.9°C 94% 0.1 mph NE0.2 kmh NE 1.0 mph1.6 kmh 29.93 in1013.5 mb 0.00 in0.0 mm 0.00 in/hr0.0 mm/hr 1.28 in32.5 mm
12:40 PM 57.0°F13.9°C 55.3°F12.9°C 94% Calm Calm 1.0 mph1.6 kmh 29.93 in1013.5 mb 0.00 in0.0 mm 0.00 in/hr0.0 mm/hr 1.28 in32.5 mm
12:50 PM 57.1°F13.9°C 55.4°F13.0°C 94% 1.3 mph NE2.1 kmh NE 3.0 mph4.8 kmh 29.94 in1013.9 mb 0.00 in0.0 mm 0.00 in/hr0.0 mm/hr 1.28 in32.5 mm
01:00 PM 57.1°F13.9°C 55.4°F13.0°C 94% 0.6 mph NE1.0 kmh NE 3.0 mph4.8 kmh 29.93 in1013.5 mb 0.00 in0.0 mm 0.00 in/hr0.0 mm/hr 1.28 in32.5 mm
01:10 PM 57.1°F13.9°C 55.7°F13.2°C 95% 0.4 mph NNE0.6 kmh NNE 4.0 mph6.4 kmh 29.93 in1013.5 mb 0.00 in0.0 mm 0.00 in/hr0.0 mm/hr 1.28 in32.5 mm
01:20 PM 57.3°F14.1°C 55.9°F13.3°C 95% 1.5 mph NE2.4 kmh NE 5.0 mph8.0 kmh 29.93 in1013.5 mb 0.00 in0.0 mm 0.00 in/hr0.0 mm/hr 1.28 in32.5 mm
01:30 PM 57.3°F14.1°C 55.9°F13.3°C 95% 0.4 mph NE0.6 kmh NE 1.0 mph1.6 kmh 29.92 in1013.2 mb 0.00 in0.0 mm 0.00 in/hr0.0 mm/hr 1.28 in32.5 mm
01:40 PM 57.4°F14.1°C 56.0°F13.3°C 95% 2.3 mph NNE3.7 kmh NNE 4.0 mph6.4 kmh 29.92 in1013.2 mb 0.00 in0.0 mm 0.00 in/hr0.0 mm/hr 1.28 in32.5 mm
01:50 PM 57.9°F14.4°C 56.5°F13.6°C 95% 2.7 mph ENE4.3 kmh ENE 3.0 mph4.8 kmh 29.92 in1013.2 mb 0.00 in0.0 mm 0.00 in/hr0.0 mm/hr 1.28 in32.5 mm
02:00 PM 59.0°F15.0°C 57.6°F14.2°C 95% 0.5 mph NE0.8 kmh NE 1.0 mph1.6 kmh 29.92 in1013.2 mb 0.00 in0.0 mm 0.00 in/hr0.0 mm/hr 1.28 in32.5 mm
02:10 PM 59.7°F15.4°C 57.6°F14.2°C 93% 2.9 mph NE4.7 kmh NE 4.0 mph6.4 kmh 29.92 in1013.2 mb 0.00 in0.0 mm 0.00 in/hr0.0 mm/hr 1.28 in32.5 mm
02:20 PM 60.0°F15.6°C 57.7°F14.3°C 92% 1.8 mph NE2.9 kmh NE 5.0 mph8.0 kmh 29.92 in1013.2 mb 0.00 in0.0 mm 0.00 in/hr0.0 mm/hr 1.28 in32.5 mm
02:30 PM 60.6°F15.9°C 57.7°F14.3°C 90% 2.5 mph ENE4.0 kmh ENE 8.0 mph12.9 kmh 29.93 in1013.5 mb 0.00 in0.0 mm 0.00 in/hr0.0 mm/hr 1.28 in32.5 mm
02:40 PM 61.0°F16.1°C 57.7°F14.3°C 89% 0.9 mph NE1.4 kmh NE 4.0 mph6.4 kmh 29.93 in1013.5 mb 0.00 in0.0 mm 0.00 in/hr0.0 mm/hr 1.28 in32.5 mm
02:50 PM 61.6°F16.4°C 58.0°F14.4°C 88% 0.1 mph NE0.2 kmh NE 1.0 mph1.6 kmh 29.93 in1013.5 mb 0.00 in0.0 mm 0.00 in/hr0.0 mm/hr 1.28 in32.5 mm
03:00 PM 61.6°F16.4°C 57.4°F14.1°C 86% 3.0 mph NE4.8 kmh NE 4.0 mph6.4 kmh 29.93 in1013.5 mb 0.00 in0.0 mm 0.00 in/hr0.0 mm/hr 1.28 in32.5 mm
03:10 PM 61.4°F16.3°C 57.2°F14.0°C 86% 3.0 mph NE4.8 kmh NE 5.0 mph8.0 kmh 29.94 in1013.9 mb 0.00 in0.0 mm 0.00 in/hr0.0 mm/hr 1.28 in32.5 mm
03:20 PM 61.7°F16.5°C 57.5°F14.2°C 86% 2.1 mph NE3.4 kmh NE 7.0 mph11.3 kmh 29.93 in1013.5 mb 0.00 in0.0 mm 0.00 in/hr0.0 mm/hr 1.28 in32.5 mm
03:30 PM 61.9°F16.6°C 57.7°F14.3°C 86% 0.7 mph NE1.1 kmh NE 3.0 mph4.8 kmh 29.95 in1014.2 mb 0.00 in0.0 mm 0.00 in/hr0.0 mm/hr 1.28 in32.5 mm
03:40 PM 61.8°F16.6°C 57.3°F14.1°C 85% 1.1 mph NE1.8 kmh NE 8.0 mph12.9 kmh 29.95 in1014.2 mb 0.00 in0.0 mm 0.00 in/hr0.0 mm/hr 1.28 in32.5 mm
03:50 PM 62.0°F16.7°C 57.4°F14.1°C 85% 1.8 mph ENE2.9 kmh ENE 4.0 mph6.4 kmh 29.95 in1014.2 mb 0.00 in0.0 mm 0.00 in/hr0.0 mm/hr 1.28 in32.5 mm
04:00 PM 61.9°F16.6°C 57.1°F13.9°C 84% 1.7 mph NE2.7 kmh NE 5.0 mph8.0 kmh 29.95 in1014.2 mb 0.00 in0.0 mm 0.00 in/hr0.0 mm/hr 1.28 in32.5 mm
04:10 PM 62.1°F16.7°C 57.6°F14.2°C 85% 1.2 mph NE1.9 kmh NE 5.0 mph8.0 kmh 29.95 in1014.2 mb 0.00 in0.0 mm 0.00 in/hr0.0 mm/hr 1.28 in32.5 mm
04:20 PM 63.1°F17.3°C 58.2°F14.6°C 84% 0.6 mph NNE1.0 kmh NNE 3.0 mph4.8 kmh 29.95 in1014.2 mb 0.00 in0.0 mm 0.00 in/hr0.0 mm/hr 1.28 in32.5 mm
04:30 PM 62.9°F17.2°C 57.3°F14.1°C 82% 0.5 mph NE0.8 kmh NE 1.0 mph1.6 kmh 29.95 in1014.2 mb 0.00 in0.0 mm 0.00 in/hr0.0 mm/hr 1.28 in32.5 mm
04:40 PM 62.6°F17.0°C 57.4°F14.1°C 83% 0.1 mph NE0.2 kmh NE 1.0 mph1.6 kmh 29.95 in1014.2 mb 0.00 in0.0 mm 0.00 in/hr0.0 mm/hr 1.28 in32.5 mm
04:50 PM 62.6°F17.0°C 57.4°F14.1°C 83% 1.3 mph ENE2.1 kmh ENE 3.0 mph4.8 kmh 29.94 in1013.9 mb 0.00 in0.0 mm 0.00 in/hr0.0 mm/hr 1.28 in32.5 mm
05:00 PM 62.1°F16.7°C 57.2°F14.0°C 84% Calm Calm -- 29.95 in1014.2 mb 0.00 in0.0 mm 0.00 in/hr0.0 mm/hr 1.28 in32.5 mm
05:10 PM 62.3°F16.8°C 57.7°F14.3°C 85% 0.8 mph NNE1.3 kmh NNE 1.0 mph1.6 kmh 29.94 in1013.9 mb 0.00 in0.0 mm 0.00 in/hr0.0 mm/hr 1.28 in32.5 mm
05:20 PM 63.2°F17.3°C 57.6°F14.2°C 82% 0.4 mph NE0.6 kmh NE 4.0 mph6.4 kmh 29.94 in1013.9 mb 0.00 in0.0 mm 0.00 in/hr0.0 mm/hr 1.28 in32.5 mm
05:30 PM 62.9°F17.2°C 57.7°F14.3°C 83% 0.5 mph NE0.8 kmh NE 3.0 mph4.8 kmh 29.94 in1013.9 mb 0.00 in0.0 mm 0.00 in/hr0.0 mm/hr 1.28 in32.5 mm
05:40 PM 62.6°F17.0°C 57.4°F14.1°C 83% 0.1 mph NE0.2 kmh NE 1.0 mph1.6 kmh 29.94 in1013.9 mb 0.00 in0.0 mm 0.00 in/hr0.0 mm/hr 1.28 in32.5 mm
05:50 PM 62.9°F17.2°C 57.3°F14.1°C 82% Calm Calm -- 29.94 in1013.9 mb 0.00 in0.0 mm 0.00 in/hr0.0 mm/hr 1.28 in32.5 mm
06:00 PM 62.7°F17.1°C 57.5°F14.2°C 83% 1.5 mph NE2.4 kmh NE 4.0 mph6.4 kmh 29.94 in1013.9 mb 0.00 in0.0 mm 0.00 in/hr0.0 mm/hr 1.28 in32.5 mm
06:10 PM 62.3°F16.8°C 57.1°F13.9°C 83% Calm Calm -- 29.94 in1013.9 mb 0.00 in0.0 mm 0.00 in/hr0.0 mm/hr 1.28 in32.5 mm
06:20 PM 62.1°F16.7°C 57.2°F14.0°C 84% 0.5 mph NE0.8 kmh NE 4.0 mph6.4 kmh 29.94 in1013.9 mb 0.00 in0.0 mm 0.00 in/hr0.0 mm/hr 1.28 in32.5 mm
06:30 PM 62.3°F16.8°C 57.1°F13.9°C 83% Calm Calm 1.0 mph1.6 kmh 29.94 in1013.9 mb 0.00 in0.0 mm 0.00 in/hr0.0 mm/hr 1.28 in32.5 mm
06:40 PM 62.1°F16.7°C 56.9°F13.8°C 83% Calm Calm -- 29.95 in1014.2 mb 0.00 in0.0 mm 0.00 in/hr0.0 mm/hr 1.28 in32.5 mm
06:50 PM 61.7°F16.5°C 56.8°F13.8°C 84% Calm Calm -- 29.95 in1014.2 mb 0.00 in0.0 mm 0.00 in/hr0.0 mm/hr 1.28 in32.5 mm
07:00 PM 61.5°F16.4°C 56.9°F13.8°C 85% Calm Calm 1.0 mph1.6 kmh 29.95 in1014.2 mb 0.00 in0.0 mm 0.00 in/hr0.0 mm/hr 1.28 in32.5 mm
07:10 PM 61.2°F16.2°C 56.7°F13.7°C 85% Calm Calm -- 29.95 in1014.2 mb 0.00 in0.0 mm 0.00 in/hr0.0 mm/hr 1.28 in32.5 mm
07:20 PM 60.9°F16.1°C 56.4°F13.6°C 85% Calm Calm -- 29.95 in1014.2 mb 0.00 in0.0 mm 0.00 in/hr0.0 mm/hr 1.28 in32.5 mm
07:30 PM 60.5°F15.8°C 56.3°F13.5°C 86% Calm Calm -- 29.95 in1014.2 mb 0.00 in0.0 mm 0.00 in/hr0.0 mm/hr 1.28 in32.5 mm
07:40 PM 60.3°F15.7°C 56.4°F13.6°C 87% Calm Calm -- 29.95 in1014.2 mb 0.00 in0.0 mm 0.00 in/hr0.0 mm/hr 1.28 in32.5 mm
07:50 PM 60.1°F15.6°C 56.2°F13.4°C 87% Calm Calm 1.0 mph1.6 kmh 29.95 in1014.2 mb 0.00 in0.0 mm 0.00 in/hr0.0 mm/hr 1.28 in32.5 mm
08:00 PM 59.8°F15.4°C 55.9°F13.3°C 87% Calm Calm -- 29.95 in1014.2 mb 0.00 in0.0 mm 0.00 in/hr0.0 mm/hr 1.28 in32.5 mm
08:10 PM 59.5°F15.3°C 55.9°F13.3°C 88% 1.0 mph NE1.6 kmh NE 3.0 mph4.8 kmh 29.94 in1013.9 mb 0.00 in0.0 mm 0.00 in/hr0.0 mm/hr 1.28 in32.5 mm
08:20 PM 59.1°F15.1°C 55.9°F13.3°C 89% 0.1 mph NE0.2 kmh NE 1.0 mph1.6 kmh 29.94 in1013.9 mb 0.00 in0.0 mm 0.00 in/hr0.0 mm/hr 1.28 in32.5 mm
08:30 PM 59.0°F15.0°C 56.1°F13.4°C 90% 0.2 mph NE0.3 kmh NE -- 29.93 in1013.5 mb 0.00 in0.0 mm 0.00 in/hr0.0 mm/hr 1.28 in32.5 mm
08:40 PM 58.9°F14.9°C 55.9°F13.3°C 90% Calm Calm -- 29.93 in1013.5 mb 0.00 in0.0 mm 0.00 in/hr0.0 mm/hr 1.28 in32.5 mm
08:50 PM 58.7°F14.8°C 55.8°F13.2°C 90% Calm Calm 2.0 mph3.2 kmh 29.93 in1013.5 mb 0.00 in0.0 mm 0.00 in/hr0.0 mm/hr 1.28 in32.5 mm
09:00 PM 58.6°F14.8°C 56.0°F13.3°C 91% Calm Calm 1.0 mph1.6 kmh 29.93 in1013.5 mb 0.00 in0.0 mm 0.00 in/hr0.0 mm/hr 1.28 in32.5 mm
09:10 PM 58.5°F14.7°C 55.9°F13.3°C 91% Calm Calm -- 29.93 in1013.5 mb 0.00 in0.0 mm 0.00 in/hr0.0 mm/hr 1.28 in32.5 mm
09:20 PM 58.3°F14.6°C 55.7°F13.2°C 91% Calm Calm -- 29.93 in1013.5 mb 0.00 in0.0 mm 0.00 in/hr0.0 mm/hr 1.28 in32.5 mm
09:30 PM 58.1°F14.5°C 55.5°F13.1°C 91% Calm Calm -- 29.93 in1013.5 mb 0.00 in0.0 mm 0.00 in/hr0.0 mm/hr 1.28 in32.5 mm
09:40 PM 58.1°F14.5°C 55.8°F13.2°C 92% Calm Calm -- 29.93 in1013.5 mb 0.00 in0.0 mm 0.00 in/hr0.0 mm/hr 1.28 in32.5 mm
09:50 PM 58.0°F14.4°C 55.7°F13.2°C 92% Calm Calm -- 29.94 in1013.9 mb 0.00 in0.0 mm 0.00 in/hr0.0 mm/hr 1.28 in32.5 mm
10:00 PM 58.0°F14.4°C 55.7°F13.2°C 92% Calm Calm 1.0 mph1.6 kmh 29.94 in1013.9 mb 0.00 in0.0 mm 0.00 in/hr0.0 mm/hr 1.28 in32.5 mm
10:10 PM 57.9°F14.4°C 55.6°F13.1°C 92% Calm Calm -- 29.94 in1013.9 mb 0.00 in0.0 mm 0.00 in/hr0.0 mm/hr 1.28 in32.5 mm
10:20 PM 57.8°F14.3°C 55.5°F13.1°C 92% Calm Calm -- 29.94 in1013.9 mb 0.00 in0.0 mm 0.00 in/hr0.0 mm/hr 1.28 in32.5 mm
10:30 PM 57.7°F14.3°C 55.7°F13.2°C 93% Calm Calm -- 29.94 in1013.9 mb 0.00 in0.0 mm 0.00 in/hr0.0 mm/hr 1.28 in32.5 mm
10:40 PM 57.6°F14.2°C 55.6°F13.1°C 93% Calm Calm -- 29.93 in1013.5 mb 0.00 in0.0 mm 0.00 in/hr0.0 mm/hr 1.28 in32.5 mm
10:50 PM 57.4°F14.1°C 55.4°F13.0°C 93% Calm Calm -- 29.94 in1013.9 mb 0.00 in0.0 mm 0.00 in/hr0.0 mm/hr 1.28 in32.5 mm
11:00 PM 57.3°F14.1°C 55.3°F12.9°C 93% Calm Calm -- 29.95 in1014.2 mb 0.00 in0.0 mm 0.00 in/hr0.0 mm/hr 1.28 in32.5 mm
11:10 PM 57.3°F14.1°C 55.3°F12.9°C 93% 0.3 mph NNE0.5 kmh NNE 1.0 mph1.6 kmh 29.95 in1014.2 mb 0.00 in0.0 mm 0.00 in/hr0.0 mm/hr 1.28 in32.5 mm
11:20 PM 57.3°F14.1°C 55.6°F13.1°C 94% Calm Calm -- 29.95 in1014.2 mb 0.00 in0.0 mm 0.00 in/hr0.0 mm/hr 1.28 in32.5 mm
11:30 PM 57.2°F14.0°C 55.5°F13.1°C 94% Calm Calm -- 29.96 in1014.6 mb 0.00 in0.0 mm 0.00 in/hr0.0 mm/hr 1.28 in32.5 mm
11:40 PM 57.2°F14.0°C 55.5°F13.1°C 94% Calm Calm -- 29.96 in1014.6 mb 0.00 in0.0 mm 0.00 in/hr0.0 mm/hr 1.28 in32.5 mm
11:50 PM 57.1°F13.9°C 55.4°F13.0°C 94% Calm Calm -- 29.97 in1014.9 mb 0.00 in0.0 mm 0.00 in/hr0.0 mm/hr 1.28 in32.5 mm